KGEY

Details ICAO KGEY
Name SOUTH BIG HORN CO
Region United States
Timezone America/Denver (UTC-7.0)
Plans Departing 1
Arriving 3
Stats Elevation 3,933 ft / 1,199 m (AMSL)
Location 44.516907° -108.084560°
Runways 2
Magnetic Variation 10.298° E
Sunrise 2017-12-13 14:42:07 UTC / 2017-12-13 07:42:07 Local
Sunset 2017-12-13 23:34:05 UTC / 2017-12-13 16:34:05 Local
Advertisement - Login to hide

Runways

ID Width Length Bearing (true) Bearing (mag) Surface Threshold Offset Overrun Length
07 75 ft / 23 m 3,936 ft / 1,200 m 86.39° 76.09° Asphalt 0 ft / 0 m 0 ft / 0 m
16 151 ft / 46 m 6,828 ft / 2,081 m 169.43° 159.13° Asphalt 0 ft / 0 m 0 ft / 0 m
25 75 ft / 23 m 3,936 ft / 1,200 m 266.41° 256.11° Asphalt 0 ft / 0 m 0 ft / 0 m
34 151 ft / 46 m 6,828 ft / 2,081 m 349.43° 339.13° Asphalt 0 ft / 0 m 0 ft / 0 m

Map

Weather


0- 5 10 15 20 25 30 35+ Temperature / ° C

Clouds and Precipitation
Forecast for 2017-12-13 12:00 UTC. Updated 10 minutes ago

Ground ~20,000 ft ~40,000 ft Winds

METAR

KGEY 130653Z AUTO 20005KT 10SM SCT110 M04/M08 A3013 RMK AO2 SLP238 T10391083 400941122 TSNO

TAF

Not found

Frequencies

Recorded 135.32 MHz ASOS
Unicom 122.80 MHz CTAF/UNICOM
Warning: Do not use this data for real-world aviation or navigation. No guarantee of current accuracy is given.